Time;durP1;ratioP1;P1;durP2;ratioP2;P2;SDS_P1;SDS_P2;PMS_P1;PMS_P2;Temp;Humidity;BMP_temperature;BMP_pressure;BME280_temperature;BME280_humidity;BME280_pressure;Samples;Min_cycle;Max_cycle;Signal;HPM_P1;HPM_P2
2021/04/27 10:35:10;;;;;;;16.60;7.40;;;15.40;45.70;;;;;;12158649;27;21165;-73
2021/04/27 10:41:01;;;;;;;20.92;8.88;;;15.80;44.50;;;;;;12125314;28;20150;-73
2021/04/27 10:46:53;;;;;;;16.17;7.75;;;16.70;43.60;;;;;;12112916;27;20107;-73
2021/04/27 10:52:40;;;;;;;13.77;7.78;;;17.30;42.60;;;;;;12120660;27;20051;-74
2021/04/27 10:58:44;;;;;;;15.73;8.05;;;17.70;41.20;;;;;;12133308;27;20048;-74
2021/04/27 11:04:32;;;;;;;12.43;7.90;;;18.00;39.80;;;;;;12133279;27;21599;-74
2021/04/27 11:10:23;;;;;;;13.55;6.88;;;17.90;39.30;;;;;;12126367;27;20105;-74
2021/04/27 11:16:27;;;;;;;16.55;8.25;;;18.20;40.70;;;;;;12093775;27;20040;-74
2021/04/27 11:22:24;;;;;;;16.73;8.65;;;18.40;41.00;;;;;;12103230;27;20048;-73
2021/04/27 11:28:16;;;;;;;17.33;8.77;;;18.60;40.60;;;;;;12055286;27;20067;-74
2021/04/27 11:34:05;;;;;;;15.82;8.38;;;18.50;39.50;;;;;;12083110;28;20435;-73
2021/04/27 11:39:52;;;;;;;12.48;7.32;;;18.40;39.00;;;;;;12094182;27;20052;-74
2021/04/27 11:45:42;;;;;;;13.68;7.55;;;18.70;40.90;;;;;;12071545;27;20135;-72
2021/04/27 11:51:28;;;;;;;13.30;7.75;;;19.00;38.40;;;;;;12075642;28;20054;-73
2021/04/27 11:57:16;;;;;;;12.52;8.20;;;19.20;39.00;;;;;;12052305;28;20063;-77
2021/04/27 12:03:32;;;;;;;12.43;7.00;;;19.30;39.60;;;;;;12060598;28;20055;-79
2021/04/27 12:09:18;;;;;;;15.48;8.13;;;19.40;37.60;;;;;;12088975;28;20060;-76
2021/04/27 12:15:06;;;;;;;15.35;8.38;;;19.50;38.40;;;;;;12076605;28;20053;-77
2021/04/27 12:20:53;;;;;;;14.93;7.88;;;19.70;38.80;;;;;;12066332;28;20434;-76
2021/04/27 12:26:41;;;;;;;13.02;7.53;;;19.80;36.90;;;;;;12075715;28;20052;-77
2021/04/27 12:32:30;;;;;;;14.32;7.68;;;19.70;34.10;;;;;;12043814;28;20104;-76
2021/04/27 12:38:18;;;;;;;18.60;8.43;;;19.60;34.40;;;;;;12086571;28;20044;-77
2021/04/27 12:44:36;;;;;;;18.10;8.40;;;19.40;35.60;;;;;;12050784;28;20080;-77
2021/04/27 12:50:24;;;;;;;13.10;7.57;;;19.50;37.50;;;;;;12037629;28;20052;-76
2021/04/27 12:56:13;;;;;;;14.52;8.35;;;19.90;36.40;;;;;;12042433;28;20056;-76
2021/04/27 13:02:00;;;;;;;13.75;8.25;;;20.10;34.40;;;;;;12068727;28;20044;-77
2021/04/27 13:07:46;;;;;;;68.75;41.92;;;20.00;35.00;;;;;;12041137;28;20048;-77
2021/04/27 13:13:34;;;;;;;15.73;8.52;;;20.20;37.00;;;;;;12056177;28;20478;-77
2021/04/27 13:19:20;;;;;;;14.52;7.90;;;20.60;36.10;;;;;;12081873;28;20064;-75
2021/04/27 13:25:11;;;;;;;11.13;7.05;;;20.70;33.20;;;;;;12059585;28;20052;-77
2021/04/27 13:30:58;;;;;;;11.13;6.40;;;20.60;34.80;;;;;;12032128;28;20049;-77
2021/04/27 13:36:45;;;;;;;10.35;6.78;;;20.90;34.60;;;;;;12026439;28;20060;-76
2021/04/27 13:42:31;;;;;;;17.23;7.22;;;21.00;32.60;;;;;;12071551;28;20579;-76
2021/04/27 13:48:19;;;;;;;12.13;7.78;;;21.00;32.50;;;;;;12079012;28;20051;-76
2021/04/27 13:54:06;;;;;;;16.30;6.93;;;21.00;32.10;;;;;;12076511;28;20514;-76
2021/04/27 13:59:52;;;;;;;10.50;6.80;;;21.10;33.20;;;;;;12078783;28;20052;-75
2021/04/27 14:05:41;;;;;;;9.88;6.38;;;21.20;32.50;;;;;;12074027;28;20052;-77
2021/04/27 14:11:27;;;;;;;20.70;7.07;;;21.30;32.20;;;;;;12080193;28;20077;-76
2021/04/27 14:17:14;;;;;;;62.42;38.22;;;21.40;32.10;;;;;;12074983;28;20056;-76
2021/04/27 14:23:04;;;;;;;10.10;6.57;;;21.40;32.00;;;;;;12034118;28;20058;-76
2021/04/27 14:28:50;;;;;;;13.73;6.95;;;21.00;31.30;;;;;;12082082;28;20044;-77
2021/04/27 14:34:37;;;;;;;14.07;6.88;;;21.00;31.70;;;;;;12082623;28;20055;-77
2021/04/27 14:40:27;;;;;;;10.52;6.35;;;21.30;32.90;;;;;;12079349;28;20406;-76
2021/04/27 14:46:13;;;;;;;12.27;6.30;;;21.70;32.80;;;;;;12055341;28;20912;-76
2021/04/27 14:51:59;;;;;;;19.70;8.35;;;21.80;32.30;;;;;;12074398;28;20044;-75
2021/04/27 14:57:47;;;;;;;13.00;6.55;;;22.10;31.70;;;;;;12051539;28;20105;-76
2021/04/27 15:03:33;;;;;;;12.82;6.07;;;22.20;31.60;;;;;;12035166;28;20148;-77
2021/04/27 15:09:20;;;;;;;9.68;6.18;;;22.30;31.80;;;;;;12072155;28;20110;-76
2021/04/27 15:15:09;;;;;;;12.38;6.45;;;22.40;31.50;;;;;;12053138;28;20051;-77
2021/04/27 15:20:55;;;;;;;12.30;6.55;;;22.50;31.30;;;;;;12045216;28;20052;-77
2021/04/27 15:26:42;;;;;;;14.68;7.05;;;22.50;30.20;;;;;;12036723;28;20056;-77
2021/04/27 15:32:29;;;;;;;11.60;7.03;;;22.40;30.70;;;;;;12043177;28;20074;-75
2021/04/27 15:38:16;;;;;;;23.08;12.63;;;22.30;30.50;;;;;;12084614;27;20044;-76
2021/04/27 15:44:07;;;;;;;12.60;6.68;;;22.40;30.10;;;;;;12110460;28;20067;-79
2021/04/27 15:49:55;;;;;;;14.23;7.85;;;22.70;30.20;;;;;;12096866;28;20043;-77
2021/04/27 15:55:41;;;;;;;15.52;6.85;;;22.90;29.90;;;;;;12106203;27;20587;-78
2021/04/27 16:01:28;;;;;;;15.05;6.82;;;22.80;30.90;;;;;;12061720;28;20079;-76
2021/04/27 16:07:15;;;;;;;10.68;7.35;;;24.10;29.60;;;;;;12075496;28;20117;-79
2021/04/27 16:13:04;;;;;;;14.93;8.88;;;25.80;27.60;;;;;;12059183;28;20128;-76
2021/04/27 16:18:51;;;;;;;11.48;7.68;;;27.80;26.50;;;;;;12084628;28;20431;-76
2021/04/27 16:24:39;;;;;;;10.73;7.60;;;29.50;25.90;;;;;;12075327;28;20469;-77
2021/04/27 16:30:25;;;;;;;14.45;7.07;;;30.50;25.60;;;;;;12056237;28;20059;-79
2021/04/27 16:36:12;;;;;;;10.45;6.90;;;31.50;24.60;;;;;;12103395;28;20082;-78
2021/04/27 16:42:00;;;;;;;12.45;6.97;;;32.60;24.20;;;;;;12094433;28;20438;-77
2021/04/27 16:47:46;;;;;;;10.65;7.22;;;33.60;23.60;;;;;;12051484;28;20044;-77
2021/04/27 16:53:33;;;;;;;8.93;6.78;;;33.90;24.10;;;;;;12048559;28;20048;-77
2021/04/27 16:59:22;;;;;;;10.50;6.72;;;33.70;23.40;;;;;;12073327;28;20048;-79
2021/04/27 17:05:10;;;;;;;15.35;6.90;;;33.90;23.30;;;;;;12055719;28;20058;-77
2021/04/27 17:10:57;;;;;;;9.80;6.80;;;34.50;22.80;;;;;;12058800;28;20082;-79
2021/04/27 17:16:45;;;;;;;12.50;6.90;;;35.20;22.80;;;;;;12073091;28;20951;-77
2021/04/27 17:22:31;;;;;;;16.83;8.00;;;34.30;23.10;;;;;;12082178;28;20131;-78
2021/04/27 17:28:17;;;;;;;333.42;247.77;;;33.60;22.70;;;;;;12079219;28;20055;-76
2021/04/27 17:34:05;;;;;;;13.15;7.97;;;33.50;23.70;;;;;;12075731;28;20387;-75
2021/04/27 17:39:52;;;;;;;11.07;6.53;;;33.80;22.90;;;;;;12039167;28;20059;-78
2021/04/27 17:45:38;;;;;;;10.35;6.45;;;33.90;23.10;;;;;;12021542;28;20053;-77
2021/04/27 17:51:26;;;;;;;12.85;6.50;;;33.60;23.10;;;;;;12086854;28;22145;-77
2021/04/27 17:57:12;;;;;;;13.82;6.50;;;32.90;23.70;;;;;;12077168;28;20762;-77
2021/04/27 18:02:59;;;;;;;10.82;6.72;;;31.90;24.20;;;;;;12037192;28;20051;-75
2021/04/27 18:08:46;;;;;;;10.60;6.25;;;29.20;25.70;;;;;;12044286;28;20048;-76
2021/04/27 18:14:34;;;;;;;8.85;4.90;;;26.90;28.70;;;;;;12079938;28;20048;-77
2021/04/27 18:20:23;;;;;;;12.20;5.50;;;25.10;31.30;;;;;;12043732;28;20132;-77
2021/04/27 18:26:10;;;;;;;11.75;4.40;;;24.00;33.30;;;;;;12033097;28;20052;-76
2021/04/27 18:31:57;;;;;;;11.18;6.63;;;23.10;33.60;;;;;;12040134;27;20062;-77
2021/04/27 18:37:44;;;;;;;8.45;4.22;;;22.60;35.30;;;;;;12076878;28;20048;-79
2021/04/27 18:43:33;;;;;;;12.90;4.68;;;22.10;36.00;;;;;;12071052;28;20056;-78
2021/04/27 18:49:23;;;;;;;8.40;3.72;;;21.60;38.40;;;;;;12112698;28;20063;-79
2021/04/27 18:55:11;;;;;;;9.00;2.95;;;21.30;39.30;;;;;;12120399;28;20056;-78
2021/04/27 19:01:01;;;;;;;7.80;2.90;;;21.00;39.60;;;;;;12081606;28;20053;-77
2021/04/27 19:06:48;;;;;;;4.38;2.53;;;20.60;40.00;;;;;;12077322;28;20047;-74
2021/04/27 19:12:35;;;;;;;7.60;2.97;;;20.20;40.60;;;;;;12045707;28;20057;-73
2021/04/27 19:18:22;;;;;;;4.07;2.60;;;20.00;41.50;;;;;;12047056;28;20578;-74
2021/04/27 19:24:10;;;;;;;7.40;2.63;;;19.80;42.50;;;;;;12067277;28;20052;-74
2021/04/27 19:29:56;;;;;;;4.50;2.63;;;19.60;43.00;;;;;;12073741;28;20071;-75
2021/04/27 19:35:44;;;;;;;7.15;2.65;;;19.40;42.80;;;;;;12050994;28;20131;-73
2021/04/27 19:41:30;;;;;;;4.38;2.65;;;19.10;42.20;;;;;;12076537;28;20124;-75
2021/04/27 19:47:17;;;;;;;8.65;2.88;;;19.00;43.50;;;;;;12091275;28;20448;-74
2021/04/27 19:53:05;;;;;;;8.57;2.53;;;18.90;44.20;;;;;;12079036;28;20058;-74
2021/04/27 19:58:53;;;;;;;9.98;2.95;;;18.80;44.30;;;;;;12093907;27;20052;-74
2021/04/27 20:04:39;;;;;;;6.03;2.90;;;18.70;44.60;;;;;;12086859;28;20036;-74
2021/04/27 20:10:29;;;;;;;4.75;2.33;;;18.50;45.30;;;;;;12085265;28;20051;-75
2021/04/27 20:16:15;;;;;;;5.82;2.78;;;18.40;45.20;;;;;;12068700;27;20051;-74
2021/04/27 20:22:02;;;;;;;14.95;2.78;;;18.40;44.80;;;;;;12045731;28;20051;-73
2021/04/27 20:27:49;;;;;;;11.73;2.92;;;18.20;45.60;;;;;;12059952;28;20056;-75
2021/04/27 20:33:37;;;;;;;6.97;2.90;;;18.10;45.90;;;;;;12091014;28;20052;-74
2021/04/27 20:39:24;;;;;;;8.35;3.17;;;18.00;45.90;;;;;;12089118;28;20079;-73
2021/04/27 20:45:13;;;;;;;5.50;3.00;;;17.80;46.10;;;;;;12074020;28;20078;-73
2021/04/27 20:50:59;;;;;;;5.85;3.10;;;17.70;46.60;;;;;;12090151;28;20070;-73
2021/04/27 20:56:46;;;;;;;8.70;2.70;;;17.70;47.80;;;;;;12097193;28;20502;-75
2021/04/27 21:02:33;;;;;;;5.40;2.80;;;17.60;47.60;;;;;;12078150;28;20134;-73
2021/04/27 21:08:19;;;;;;;4.95;2.58;;;17.50;47.40;;;;;;12080396;28;20058;-74
2021/04/27 21:14:06;;;;;;;7.88;3.13;;;17.40;47.50;;;;;;12092356;28;20091;-73
2021/04/27 21:19:54;;;;;;;6.03;2.33;;;17.30;47.60;;;;;;12085692;28;20055;-73
2021/04/27 21:25:40;;;;;;;4.78;2.60;;;17.20;48.40;;;;;;12040346;28;20582;-74
2021/04/27 21:31:27;;;;;;;6.20;3.15;;;17.20;48.20;;;;;;12079316;28;20074;-75
2021/04/27 21:37:14;;;;;;;5.35;3.45;;;17.10;48.30;;;;;;12088031;28;20179;-74
2021/04/27 21:43:03;;;;;;;9.52;3.13;;;17.10;49.30;;;;;;12049179;28;20059;-74
2021/04/27 21:48:52;;;;;;;9.32;3.50;;;17.00;49.60;;;;;;12068317;28;20068;-73
2021/04/27 21:54:39;;;;;;;7.50;3.38;;;16.90;50.70;;;;;;12076773;28;20048;-73
2021/04/27 22:00:28;;;;;;;14.38;3.58;;;16.80;50.70;;;;;;12088945;28;20052;-74
2021/04/27 22:06:15;;;;;;;7.78;3.42;;;16.80;51.80;;;;;;12083174;28;20506;-73
2021/04/27 22:12:02;;;;;;;4.45;3.40;;;16.80;51.60;;;;;;12066322;28;20153;-74
2021/04/27 22:17:49;;;;;;;8.80;4.10;;;16.70;51.70;;;;;;12073116;28;20052;-73
2021/04/27 22:23:36;;;;;;;10.55;3.40;;;16.70;52.20;;;;;;12040340;28;20503;-73
2021/04/27 22:29:23;;;;;;;9.10;3.75;;;16.70;52.20;;;;;;12031346;28;20053;-74
2021/04/27 22:35:11;;;;;;;9.27;3.78;;;16.60;52.10;;;;;;12042276;28;20057;-74
2021/04/27 22:40:58;;;;;;;4.47;2.83;;;16.50;52.70;;;;;;12075377;28;20060;-73
2021/04/27 22:46:45;;;;;;;8.65;3.15;;;16.40;53.30;;;;;;12076574;28;20054;-74
2021/04/27 22:52:31;;;;;;;5.57;3.30;;;16.30;53.70;;;;;;12035737;28;20936;-73
2021/04/27 22:58:21;;;;;;;7.72;3.55;;;16.20;53.70;;;;;;12081381;28;20063;-74
2021/04/27 23:04:09;;;;;;;10.05;3.40;;;16.20;54.10;;;;;;12055212;28;20083;-74
